createdAt,value
2022-11-07T00:00:03.121Z,85.65
2022-11-07T00:01:03.106Z,85.75
2022-11-07T00:02:03.150Z,85.86
2022-11-07T00:03:03.125Z,86.06
2022-11-07T00:04:03.066Z,85.96
2022-11-07T00:05:03.066Z,85.96
2022-11-07T00:06:03.037Z,86.06
2022-11-07T00:07:03.045Z,86.26
2022-11-07T00:08:03.016Z,86.36
2022-11-07T00:09:03.009Z,86.57
2022-11-07T00:10:02.975Z,86.47
2022-11-07T00:11:03.039Z,86.47
2022-11-07T00:12:02.989Z,86.77
2022-11-07T00:13:02.972Z,86.98
2022-11-07T00:14:02.980Z,87.08
2022-11-07T00:15:02.971Z,87.12
2022-11-07T00:16:02.941Z,87.32
2022-11-07T00:17:02.939Z,87.63
2022-11-07T00:18:02.941Z,87.73
2022-11-07T00:19:02.929Z,87.73
2022-11-07T00:20:02.900Z,87.84
2022-11-07T00:21:02.882Z,88.04
2022-11-07T00:22:02.905Z,88.04
2022-11-07T00:23:02.873Z,88.14
2022-11-07T00:24:02.864Z,88.24
2022-11-07T00:25:02.863Z,88.14
2022-11-07T00:26:02.820Z,88.35
2022-11-07T00:27:02.938Z,88.45
2022-11-07T00:28:02.823Z,88.45
2022-11-07T00:29:02.825Z,88.45
2022-11-07T00:30:02.805Z,88.55
2022-11-07T00:31:02.774Z,88.55
2022-11-07T00:32:02.802Z,88.55
2022-11-07T00:33:02.777Z,88.55
2022-11-07T00:34:02.758Z,88.65
2022-11-07T00:35:02.739Z,88.55
2022-11-07T00:36:02.733Z,88.65
2022-11-07T00:37:02.724Z,88.76
2022-11-07T00:38:02.725Z,88.65
2022-11-07T00:39:02.683Z,88.76
2022-11-07T00:40:02.705Z,88.76
2022-11-07T00:41:02.675Z,88.65
2022-11-07T00:42:02.679Z,88.61
2022-11-07T00:43:02.664Z,88.61
2022-11-07T00:44:02.655Z,88.71
2022-11-07T00:45:02.624Z,88.61
2022-11-07T00:46:02.622Z,88.61
2022-11-07T00:47:02.607Z,88.61
2022-11-07T00:48:02.607Z,88.51
2022-11-07T00:49:02.599Z,88.51
2022-11-07T00:50:02.574Z,88.51
2022-11-07T00:51:02.586Z,88.61
2022-11-07T00:52:02.555Z,88.61
2022-11-07T00:53:02.548Z,88.51
2022-11-07T00:54:02.564Z,88.51
2022-11-07T00:55:02.528Z,88.51
2022-11-07T00:56:02.507Z,88.51
2022-11-07T00:57:02.487Z,88.51
2022-11-07T00:58:02.481Z,88.51
2022-11-07T00:59:02.502Z,88.51
2022-11-07T01:00:02.479Z,88.61
2022-11-07T01:01:02.459Z,88.57
2022-11-07T01:02:02.586Z,88.47
2022-11-07T01:03:02.447Z,88.47
2022-11-07T01:04:02.415Z,88.47
2022-11-07T01:05:02.409Z,88.47
2022-11-07T01:06:02.494Z,88.57
2022-11-07T01:07:02.402Z,88.71
2022-11-07T01:08:02.407Z,88.82
2022-11-07T01:09:02.388Z,88.82
2022-11-07T01:10:02.368Z,88.92
2022-11-07T01:11:02.349Z,89.02
2022-11-07T01:12:02.341Z,89.23
2022-11-07T01:13:02.339Z,89.23
2022-11-07T01:14:02.334Z,89.23
2022-11-07T01:15:02.321Z,89.43
2022-11-07T01:16:02.304Z,89.53
2022-11-07T01:17:02.320Z,89.53
2022-11-07T01:18:02.285Z,89.63
2022-11-07T01:19:02.269Z,89.63
2022-11-07T01:20:02.289Z,89.73
2022-11-07T01:21:02.262Z,89.73
2022-11-07T01:22:02.232Z,89.84
2022-11-07T01:23:02.233Z,89.84
2022-11-07T01:24:02.212Z,89.94
2022-11-07T01:25:02.201Z,90.04
2022-11-07T01:26:02.184Z,90.04
2022-11-07T01:27:02.213Z,90.14
2022-11-07T01:28:02.167Z,90.14
2022-11-07T01:29:02.162Z,90.14
2022-11-07T01:30:02.154Z,90.25
2022-11-07T01:31:02.151Z,90.25
2022-11-07T01:32:02.133Z,90.25
2022-11-07T01:33:02.133Z,90.14
2022-11-07T01:34:02.116Z,90.14
2022-11-07T01:35:02.095Z,90.04
2022-11-07T01:36:05.878Z,90.14
2022-11-07T01:37:02.107Z,90.14
2022-11-07T01:38:02.056Z,90.14
2022-11-07T01:39:02.045Z,90.14
2022-11-07T01:40:02.032Z,90.25
2022-11-07T01:41:02.028Z,90.25
2022-11-07T01:42:02.007Z,90.25
2022-11-07T01:43:02.026Z,90.35
2022-11-07T01:44:02.017Z,90.45
2022-11-07T01:45:01.992Z,90.49
2022-11-07T01:46:01.993Z,90.49
2022-11-07T01:47:01.978Z,90.59
2022-11-07T01:48:01.957Z,90.59
2022-11-07T01:49:01.965Z,90.59
2022-11-07T01:50:01.919Z,90.70
2022-11-07T01:51:01.916Z,90.70
2022-11-07T01:52:01.909Z,90.80
2022-11-07T01:53:01.918Z,90.90
2022-11-07T01:54:01.906Z,90.90
2022-11-07T01:55:01.877Z,90.90
2022-11-07T01:56:01.883Z,91.00
2022-11-07T01:57:01.896Z,91.00
2022-11-07T01:58:01.867Z,91.00
2022-11-07T01:59:01.830Z,91.11
2022-11-07T02:00:01.821Z,91.11
2022-11-07T02:01:01.822Z,91.20
2022-11-07T02:02:01.919Z,91.31
2022-11-07T02:03:01.932Z,91.31
2022-11-07T02:04:01.776Z,91.41
2022-11-07T02:05:01.772Z,91.31
2022-11-07T02:06:01.756Z,91.41
2022-11-07T02:07:01.741Z,91.31
2022-11-07T02:08:01.770Z,91.31
2022-11-07T02:09:01.737Z,91.41
2022-11-07T02:10:01.712Z,91.41
2022-11-07T02:11:01.730Z,91.41
2022-11-07T02:12:01.699Z,91.31
2022-11-07T02:13:01.711Z,91.31
2022-11-07T02:14:01.669Z,91.31
2022-11-07T02:15:01.685Z,91.20
2022-11-07T02:16:01.663Z,91.20
2022-11-07T02:17:01.649Z,91.31
2022-11-07T02:18:01.631Z,91.31
2022-11-07T02:19:01.635Z,91.41
2022-11-07T02:20:01.589Z,91.52
2022-11-07T02:21:01.611Z,91.52
2022-11-07T02:22:01.593Z,91.61
2022-11-07T02:23:01.592Z,91.52
2022-11-07T02:24:01.583Z,91.52
2022-11-07T02:25:01.557Z,91.52
2022-11-07T02:26:01.545Z,91.52
2022-11-07T02:27:01.546Z,91.52
2022-11-07T02:28:01.537Z,91.52
2022-11-07T02:29:01.526Z,91.41
2022-11-07T02:30:01.515Z,91.31
2022-11-07T02:31:01.483Z,91.31
2022-11-07T02:32:01.493Z,91.20
2022-11-07T02:33:01.470Z,91.20
2022-11-07T02:34:01.464Z,91.11
2022-11-07T02:35:01.440Z,91.11
2022-11-07T02:36:01.452Z,91.11
2022-11-07T02:37:01.465Z,91.00
2022-11-07T02:38:01.404Z,90.90
2022-11-07T02:39:01.395Z,90.90
2022-11-07T02:40:01.409Z,90.80
2022-11-07T02:41:01.376Z,90.66
2022-11-07T02:42:01.385Z,90.55
2022-11-07T02:43:01.374Z,90.45
2022-11-07T02:44:01.345Z,90.35
2022-11-07T02:45:01.363Z,90.35
2022-11-07T02:46:01.335Z,90.35
2022-11-07T02:47:01.323Z,90.14
2022-11-07T02:48:01.316Z,90.04
2022-11-07T02:49:01.307Z,89.94
2022-11-07T02:50:01.288Z,89.84
2022-11-07T02:51:01.277Z,89.84
2022-11-07T02:52:01.288Z,89.63
2022-11-07T02:53:01.254Z,89.63
2022-11-07T02:54:01.245Z,89.53
2022-11-07T02:55:01.221Z,89.39
2022-11-07T02:56:01.202Z,89.28
2022-11-07T02:57:01.189Z,89.18
2022-11-07T02:58:01.181Z,89.08
2022-11-07T02:59:01.153Z,88.98
2022-11-07T03:00:01.151Z,88.88
2022-11-07T03:01:01.143Z,88.78
2022-11-07T03:02:01.176Z,88.78
2022-11-07T03:03:01.121Z,88.67
2022-11-07T03:04:01.113Z,88.57
2022-11-07T03:05:01.095Z,88.47
2022-11-07T03:06:01.092Z,88.47
2022-11-07T03:07:01.085Z,88.47
2022-11-07T03:08:01.057Z,88.57
2022-11-07T03:09:01.051Z,88.37
2022-11-07T03:10:01.035Z,88.37
2022-11-07T03:11:01.043Z,88.32
2022-11-07T03:12:01.013Z,88.22
2022-11-07T03:13:01.016Z,88.12
2022-11-07T03:14:01.005Z,88.02
2022-11-07T03:15:01.078Z,88.02
2022-11-07T03:16:01.045Z,87.92
2022-11-07T03:17:00.965Z,87.82
2022-11-07T03:18:00.946Z,87.71
2022-11-07T03:19:00.946Z,87.61
2022-11-07T03:20:00.935Z,87.61
2022-11-07T03:21:00.945Z,87.61
2022-11-07T03:22:00.907Z,87.51
2022-11-07T03:23:00.896Z,87.30
2022-11-07T03:24:00.896Z,87.30
2022-11-07T03:25:00.885Z,87.41
2022-11-07T03:26:00.874Z,87.30
2022-11-07T03:27:00.868Z,87.10
2022-11-07T03:28:00.850Z,86.96
2022-11-07T03:29:00.845Z,86.86
2022-11-07T03:30:00.828Z,86.76
2022-11-07T03:31:00.816Z,86.65
2022-11-07T03:32:00.807Z,86.55
2022-11-07T03:33:00.817Z,86.55
2022-11-07T03:34:00.777Z,86.45
2022-11-07T03:35:00.778Z,86.45
2022-11-07T03:36:00.755Z,86.45
2022-11-07T03:37:00.759Z,86.45
2022-11-07T03:38:00.759Z,86.35
2022-11-07T03:39:00.739Z,86.35
2022-11-07T03:40:00.738Z,86.24
2022-11-07T03:41:00.707Z,86.24
2022-11-07T03:42:00.709Z,86.24
2022-11-07T03:43:00.682Z,86.15
2022-11-07T03:44:00.679Z,86.15
2022-11-07T03:45:00.678Z,86.15
2022-11-07T03:46:00.663Z,86.24
2022-11-07T03:47:00.639Z,86.15
2022-11-07T03:48:00.620Z,86.15
2022-11-07T03:49:00.630Z,86.15
2022-11-07T03:50:00.619Z,86.24
2022-11-07T03:51:00.610Z,86.35
2022-11-07T03:52:00.590Z,86.24
2022-11-07T03:53:00.581Z,86.24
2022-11-07T03:54:00.569Z,86.35
2022-11-07T03:55:00.569Z,86.35
2022-11-07T03:56:00.574Z,86.35
2022-11-07T03:57:00.540Z,86.35
2022-11-07T03:58:00.520Z,86.45
2022-11-07T03:59:00.521Z,86.55
2022-11-07T04:00:00.492Z,86.55
2022-11-07T04:01:00.509Z,86.65
2022-11-07T04:02:00.555Z,86.86
2022-11-07T04:03:00.638Z,86.76
2022-11-07T04:04:00.462Z,86.86
2022-11-07T04:05:00.454Z,86.86
2022-11-07T04:06:00.453Z,86.96
2022-11-07T04:07:00.434Z,86.96
2022-11-07T04:08:00.403Z,86.96
2022-11-07T04:09:00.413Z,86.96
2022-11-07T04:10:00.390Z,87.10
2022-11-07T04:11:00.381Z,87.06
2022-11-07T04:12:00.393Z,87.10
2022-11-07T04:13:00.363Z,87.10
2022-11-07T04:14:00.344Z,87.20
2022-11-07T04:15:00.339Z,87.10
2022-11-07T04:16:00.355Z,87.10
2022-11-07T04:17:00.326Z,87.10
2022-11-07T04:18:00.319Z,87.06
2022-11-07T04:19:00.313Z,87.16
2022-11-07T04:20:00.294Z,87.06
2022-11-07T04:21:00.285Z,87.06
2022-11-07T04:22:00.255Z,87.06
2022-11-07T04:23:00.263Z,87.06
2022-11-07T04:24:00.256Z,87.06
2022-11-07T04:25:00.234Z,87.16
2022-11-07T04:26:00.226Z,87.20
2022-11-07T04:27:00.218Z,87.30
2022-11-07T04:28:00.194Z,87.20
2022-11-07T04:29:00.236Z,87.20
2022-11-07T04:30:00.207Z,87.30
2022-11-07T04:31:00.178Z,87.41
2022-11-07T04:32:00.150Z,87.30
2022-11-07T04:33:00.159Z,87.41
2022-11-07T04:34:00.158Z,87.41
2022-11-07T04:35:00.140Z,87.30
2022-11-07T04:36:00.126Z,87.41
2022-11-07T04:37:00.105Z,87.41
2022-11-07T04:38:00.101Z,87.41
2022-11-07T04:39:00.090Z,87.41
2022-11-07T04:40:00.077Z,87.41
2022-11-07T04:41:00.079Z,87.30
2022-11-07T04:42:00.040Z,87.41
2022-11-07T04:43:00.056Z,87.41
2022-11-07T04:44:00.060Z,87.41
2022-11-07T04:45:00.039Z,87.30
2022-11-07T04:46:00.000Z,87.30
2022-11-07T04:46:59.998Z,87.41
2022-11-07T04:47:59.980Z,87.30
2022-11-07T04:49:00.010Z,87.20
2022-11-07T04:49:59.958Z,87.30
2022-11-07T04:50:59.951Z,87.20
2022-11-07T04:51:59.940Z,87.30
2022-11-07T04:52:59.932Z,87.30
2022-11-07T04:53:59.928Z,87.20
2022-11-07T04:54:59.918Z,87.30
2022-11-07T04:55:59.911Z,87.30
2022-11-07T04:56:59.890Z,87.30
2022-11-07T04:57:59.891Z,87.30
2022-11-07T04:58:59.889Z,87.30
2022-11-07T04:59:59.852Z,87.41
2022-11-07T05:00:59.866Z,87.51
2022-11-07T05:01:59.988Z,87.51
2022-11-07T05:02:59.913Z,87.61
2022-11-07T05:03:59.802Z,87.61
2022-11-07T05:04:59.808Z,87.71
2022-11-07T05:05:59.801Z,87.71
2022-11-07T05:06:59.882Z,87.71
2022-11-07T05:07:59.763Z,87.71
2022-11-07T05:08:59.775Z,87.71
2022-11-07T05:09:59.741Z,87.71
2022-11-07T05:10:59.762Z,87.61
2022-11-07T05:11:59.732Z,87.71
2022-11-07T05:12:59.735Z,87.71
2022-11-07T05:13:59.697Z,87.82
2022-11-07T05:14:59.703Z,87.82
2022-11-07T05:15:59.704Z,87.82
2022-11-07T05:16:59.674Z,87.92
2022-11-07T05:17:59.667Z,88.06
2022-11-07T05:18:59.664Z,88.12
2022-11-07T05:19:59.636Z,88.12
2022-11-07T05:20:59.647Z,88.12
2022-11-07T05:21:59.635Z,88.12
2022-11-07T05:22:59.624Z,88.12
2022-11-07T05:23:59.627Z,88.12
2022-11-07T05:24:59.586Z,88.17
2022-11-07T05:25:59.585Z,88.12
2022-11-07T05:26:59.566Z,88.17
2022-11-07T05:27:59.566Z,88.17
2022-11-07T05:28:59.566Z,88.26
2022-11-07T05:29:59.527Z,88.26
2022-11-07T05:30:59.525Z,88.26
2022-11-07T05:31:59.516Z,88.37
2022-11-07T05:32:59.508Z,88.37
2022-11-07T05:33:59.487Z,88.37
2022-11-07T05:34:59.478Z,88.47
2022-11-07T05:35:59.507Z,88.47
2022-11-07T05:36:59.480Z,88.47
2022-11-07T05:37:59.450Z,88.57
2022-11-07T05:38:59.469Z,88.57
2022-11-07T05:39:59.439Z,88.57
2022-11-07T05:40:59.422Z,88.57
2022-11-07T05:41:59.439Z,88.67
2022-11-07T05:42:59.403Z,88.67
2022-11-07T05:43:59.397Z,88.67
2022-11-07T05:44:59.398Z,88.67
2022-11-07T05:45:59.370Z,88.78
2022-11-07T05:46:59.361Z,88.78
2022-11-07T05:47:59.331Z,88.88
2022-11-07T05:49:01.078Z,88.88
2022-11-07T05:49:59.330Z,88.98
2022-11-07T05:50:59.320Z,88.98
2022-11-07T05:51:59.290Z,89.08
2022-11-07T05:52:59.418Z,89.08
2022-11-07T05:53:59.270Z,89.08
2022-11-07T05:54:59.271Z,89.23
2022-11-07T05:55:59.267Z,89.32
2022-11-07T05:56:59.262Z,89.43
2022-11-07T05:58:05.715Z,89.43
2022-11-07T05:59:00.242Z,89.43
2022-11-07T05:59:59.212Z,89.63
2022-11-07T06:00:59.223Z,89.63
2022-11-07T06:01:59.272Z,89.63
2022-11-07T06:02:59.314Z,89.63
2022-11-07T06:03:59.166Z,89.73
2022-11-07T06:04:59.154Z,89.73
2022-11-07T06:05:59.872Z,89.84
2022-11-07T06:06:59.155Z,89.84
2022-11-07T06:08:00.124Z,89.84
2022-11-07T06:08:59.131Z,89.84
2022-11-07T06:09:59.828Z,89.84
2022-11-07T06:10:59.153Z,89.84
2022-11-07T06:11:59.784Z,89.94
2022-11-07T06:12:59.115Z,89.94
2022-11-07T06:13:59.787Z,89.94
2022-11-07T06:14:59.075Z,89.94
2022-11-07T06:15:59.766Z,89.94
2022-11-07T06:16:59.104Z,90.04
2022-11-07T06:17:59.047Z,90.14
2022-11-07T06:18:59.085Z,90.14
2022-11-07T06:19:59.011Z,90.14
2022-11-07T06:20:58.996Z,90.25
2022-11-07T06:21:59.726Z,90.35
2022-11-07T06:22:58.973Z,90.45
2022-11-07T06:23:58.981Z,90.55
2022-11-07T06:24:58.944Z,90.66
2022-11-07T06:25:58.926Z,90.66
2022-11-07T06:26:58.955Z,90.66
2022-11-07T06:27:58.916Z,90.75
2022-11-07T06:28:58.915Z,90.75
2022-11-07T06:29:58.876Z,90.75
2022-11-07T06:30:58.888Z,90.75
2022-11-07T06:31:58.858Z,90.75
2022-11-07T06:32:58.897Z,90.75
2022-11-07T06:33:58.857Z,90.75
2022-11-07T06:34:58.845Z,90.75
2022-11-07T06:35:58.839Z,90.75
2022-11-07T06:37:03.102Z,90.75
2022-11-07T06:37:58.807Z,90.66
2022-11-07T06:38:58.806Z,90.66
2022-11-07T06:39:58.779Z,90.66
2022-11-07T06:40:58.769Z,90.66
2022-11-07T06:41:58.766Z,90.66
2022-11-07T06:42:58.769Z,90.61
2022-11-07T06:43:58.758Z,90.51
2022-11-07T06:44:58.721Z,90.51
2022-11-07T06:45:58.740Z,90.41
2022-11-07T06:46:58.699Z,90.31
2022-11-07T06:47:58.700Z,90.31
2022-11-07T06:48:58.689Z,90.31
2022-11-07T06:49:58.682Z,90.31
2022-11-07T06:50:58.670Z,90.31
2022-11-07T06:51:58.650Z,90.10
2022-11-07T06:52:58.642Z,90.10
2022-11-07T06:53:58.622Z,90.20
2022-11-07T06:54:58.619Z,90.06
2022-11-07T06:55:58.631Z,89.96
2022-11-07T06:56:58.621Z,89.86
2022-11-07T06:57:58.593Z,89.86
2022-11-07T06:58:58.622Z,89.75
2022-11-07T06:59:58.559Z,89.75
2022-11-07T07:00:58.668Z,89.75
2022-11-07T07:01:58.642Z,89.75
2022-11-07T07:03:00.228Z,89.65
2022-11-07T07:03:58.519Z,89.65
2022-11-07T07:04:59.880Z,89.65
2022-11-07T07:05:58.513Z,89.65
2022-11-07T07:06:59.231Z,89.65
2022-11-07T07:07:58.493Z,89.55
2022-11-07T07:08:59.171Z,89.55
2022-11-07T07:09:58.464Z,89.55
2022-11-07T07:10:58.764Z,89.55
2022-11-07T07:11:58.484Z,89.55
2022-11-07T07:12:58.828Z,89.55
2022-11-07T07:14:02.211Z,89.40
2022-11-07T07:14:59.514Z,89.40
2022-11-07T07:15:58.427Z,89.40
2022-11-07T07:16:59.106Z,89.40
2022-11-07T07:17:58.416Z,89.30
2022-11-07T07:18:58.464Z,89.30
2022-11-07T07:19:58.354Z,89.20
2022-11-07T07:20:59.047Z,89.20
2022-11-07T07:21:58.337Z,89.10
2022-11-07T07:23:04.379Z,89.10
2022-11-07T07:23:59.314Z,89.00
2022-11-07T07:24:58.286Z,88.90
2022-11-07T07:25:58.306Z,88.79
2022-11-07T07:26:58.266Z,88.69
2022-11-07T07:27:58.287Z,88.65
2022-11-07T07:28:58.257Z,88.45
2022-11-07T07:29:58.248Z,88.45
2022-11-07T07:30:58.228Z,88.24
2022-11-07T07:31:58.225Z,88.14
2022-11-07T07:32:58.228Z,88.04
2022-11-07T07:33:58.209Z,87.94
2022-11-07T07:34:58.189Z,88.04
2022-11-07T07:35:58.190Z,88.04
2022-11-07T07:36:58.167Z,87.90
2022-11-07T07:37:58.202Z,88.00
2022-11-07T07:38:58.174Z,87.90
2022-11-07T07:39:58.142Z,87.79
2022-11-07T07:40:58.138Z,87.69
2022-11-07T07:41:58.130Z,87.59
2022-11-07T07:42:58.100Z,87.59
2022-11-07T07:43:58.130Z,87.59
2022-11-07T07:44:58.130Z,87.38
2022-11-07T07:45:58.122Z,87.38
2022-11-07T07:46:58.073Z,87.49
2022-11-07T07:47:58.077Z,87.38
2022-11-07T07:48:58.072Z,87.18
2022-11-07T07:49:58.070Z,87.08
2022-11-07T07:50:58.027Z,87.08
2022-11-07T07:51:58.068Z,86.94
2022-11-07T07:52:58.038Z,86.74
2022-11-07T07:53:58.004Z,86.63
2022-11-07T07:54:57.971Z,86.43
2022-11-07T07:55:58.003Z,86.53
2022-11-07T07:56:57.970Z,86.63
2022-11-07T07:57:57.941Z,86.43
2022-11-07T07:58:57.944Z,86.33
2022-11-07T07:59:57.961Z,86.33
2022-11-07T08:00:58.000Z,86.19
2022-11-07T08:01:58.149Z,85.98
2022-11-07T08:02:57.893Z,85.88
2022-11-07T08:04:01.933Z,85.98
2022-11-07T08:04:57.863Z,85.98
2022-11-07T08:05:57.865Z,85.88
2022-11-07T08:06:57.839Z,85.47
2022-11-07T08:07:57.845Z,85.58
2022-11-07T08:08:57.842Z,85.58
2022-11-07T08:10:01.985Z,85.23
2022-11-07T08:10:57.848Z,84.82
2022-11-07T08:11:57.812Z,84.92
2022-11-07T08:12:57.806Z,84.62
2022-11-07T08:14:01.345Z,84.52
2022-11-07T08:14:57.746Z,84.62
2022-11-07T08:15:57.754Z,84.31
2022-11-07T08:16:57.756Z,84.42
2022-11-07T08:17:57.738Z,84.38
2022-11-07T08:18:57.725Z,84.17
2022-11-07T08:19:57.718Z,84.07
2022-11-07T08:20:57.766Z,84.07
2022-11-07T08:21:57.720Z,83.87
2022-11-07T08:22:57.668Z,83.76
2022-11-07T08:23:57.667Z,83.76
2022-11-07T08:24:57.656Z,83.87
2022-11-07T08:25:57.668Z,83.87
2022-11-07T08:26:57.621Z,83.76
2022-11-07T08:27:57.660Z,83.76
2022-11-07T08:28:57.617Z,83.67
2022-11-07T08:29:57.608Z,83.76
2022-11-07T08:30:57.599Z,83.76
2022-11-07T08:31:58.580Z,83.76
2022-11-07T08:32:57.560Z,83.67
2022-11-07T08:33:58.707Z,83.67
2022-11-07T08:34:57.579Z,83.26
2022-11-07T08:35:57.723Z,83.06
2022-11-07T08:36:57.518Z,83.15
2022-11-07T08:37:58.532Z,83.15
2022-11-07T08:38:57.526Z,83.15
2022-11-07T08:39:57.560Z,82.95
2022-11-07T08:40:57.499Z,82.85
2022-11-07T08:41:58.201Z,82.85
2022-11-07T08:42:57.481Z,82.95
2022-11-07T08:43:57.844Z,82.85
2022-11-07T08:44:57.447Z,82.75
2022-11-07T08:45:57.509Z,82.51
2022-11-07T08:46:57.432Z,82.40
2022-11-07T08:47:58.140Z,82.20
2022-11-07T08:48:57.423Z,82.31
2022-11-07T08:49:57.782Z,82.00
2022-11-07T08:50:57.360Z,81.79
2022-11-07T08:51:57.392Z,81.56
2022-11-07T08:53:02.487Z,81.35
2022-11-07T08:53:58.333Z,81.25
2022-11-07T08:54:57.323Z,81.15
2022-11-07T08:55:57.343Z,80.64
2022-11-07T08:56:57.301Z,80.64
2022-11-07T08:57:57.295Z,80.13
2022-11-07T08:58:57.284Z,80.19
2022-11-07T08:59:57.267Z,80.40
2022-11-07T09:00:57.293Z,80.10
2022-11-07T09:02:39.076Z,80.19
2022-11-07T09:03:30.749Z,79.90
2022-11-07T09:03:58.800Z,79.90
2022-11-07T09:04:57.214Z,79.65
2022-11-07T09:05:57.926Z,79.65
2022-11-07T09:06:57.236Z,79.65
2022-11-07T09:07:57.194Z,79.35
2022-11-07T09:08:57.188Z,79.35
2022-11-07T09:09:57.163Z,79.55
2022-11-07T09:10:57.179Z,79.35
2022-11-07T09:11:57.136Z,78.94
2022-11-07T09:12:57.135Z,79.14
2022-11-07T09:13:57.145Z,79.55
2022-11-07T09:14:57.109Z,79.04
2022-11-07T09:15:57.089Z,79.14
2022-11-07T09:16:57.087Z,78.74
2022-11-07T09:17:57.087Z,79.04
2022-11-07T09:18:57.068Z,79.14
2022-11-07T09:19:57.067Z,78.84
2022-11-07T09:20:57.066Z,78.33
2022-11-07T09:21:57.057Z,78.33
2022-11-07T09:22:57.057Z,78.64
2022-11-07T09:23:57.066Z,78.23
2022-11-07T09:24:57.005Z,78.13
2022-11-07T09:25:56.997Z,78.03
2022-11-07T09:26:56.989Z,77.99
2022-11-07T09:27:56.960Z,77.99
2022-11-07T09:29:00.926Z,78.19
2022-11-07T09:29:56.953Z,78.09
2022-11-07T09:30:56.939Z,77.89
2022-11-07T09:31:56.931Z,78.09
2022-11-07T09:32:56.915Z,77.79
2022-11-07T09:33:56.920Z,77.69
2022-11-07T09:35:02.000Z,77.89
2022-11-07T09:35:57.880Z,77.99
2022-11-07T09:36:56.878Z,77.69
2022-11-07T09:37:56.872Z,77.69
2022-11-07T09:38:56.871Z,77.28
2022-11-07T09:39:56.832Z,77.38
2022-11-07T09:40:56.822Z,77.28
2022-11-07T09:41:56.821Z,77.48
2022-11-07T09:42:56.816Z,77.08
2022-11-07T09:43:56.810Z,77.28
2022-11-07T09:44:56.774Z,77.18
2022-11-07T09:45:56.792Z,77.38
2022-11-07T09:46:57.013Z,77.48
2022-11-07T09:47:56.763Z,76.98
2022-11-07T09:48:57.744Z,77.18
2022-11-07T09:49:56.756Z,76.78
2022-11-07T09:50:56.899Z,76.94
2022-11-07T09:51:56.729Z,76.84
2022-11-07T09:52:57.445Z,76.43
2022-11-07T09:53:56.738Z,75.93
2022-11-07T09:54:57.378Z,75.62
2022-11-07T09:55:56.780Z,76.13
2022-11-07T09:56:57.385Z,76.13
2022-11-07T09:57:56.655Z,75.82
2022-11-07T09:58:57.127Z,75.73
2022-11-07T09:59:56.628Z,75.32
2022-11-07T10:00:57.081Z,75.42
2022-11-07T10:01:56.701Z,75.52
2022-11-07T10:02:56.597Z,75.62
2022-11-07T10:04:57.686Z,75.32
2022-11-07T10:05:56.580Z,75.12
2022-11-07T10:06:56.578Z,75.22
2022-11-07T10:07:56.527Z,74.77
2022-11-07T10:08:56.508Z,74.88
2022-11-07T10:09:56.547Z,74.98
2022-11-07T10:10:56.510Z,74.77
2022-11-07T10:11:56.499Z,74.48
2022-11-07T10:12:56.496Z,74.68
2022-11-07T10:13:56.482Z,74.57
2022-11-07T10:14:56.446Z,74.57
2022-11-07T10:15:56.439Z,74.88
2022-11-07T10:16:56.450Z,74.88
2022-11-07T10:17:56.437Z,75.04
2022-11-07T10:18:56.421Z,75.15
2022-11-07T10:19:56.429Z,74.95
2022-11-07T10:21:16.088Z,74.64
2022-11-07T10:21:57.370Z,74.13
2022-11-07T10:22:56.399Z,74.33
2022-11-07T10:23:56.371Z,74.24
2022-11-07T10:24:56.391Z,73.59
2022-11-07T10:25:56.351Z,73.49
2022-11-07T10:26:56.331Z,72.99
2022-11-07T10:27:56.311Z,72.99
2022-11-07T10:28:56.291Z,72.78
2022-11-07T10:29:56.331Z,72.75
2022-11-07T10:30:56.281Z,72.44
2022-11-07T10:31:56.297Z,72.44
2022-11-07T10:32:56.262Z,72.14
2022-11-07T10:33:56.241Z,71.73
2022-11-07T10:34:56.251Z,71.94
2022-11-07T10:35:56.252Z,71.94
2022-11-07T10:36:56.212Z,71.80
2022-11-07T10:37:56.222Z,71.91
2022-11-07T10:38:56.211Z,72.11
2022-11-07T10:39:56.214Z,72.21
2022-11-07T10:40:56.188Z,72.31
2022-11-07T10:41:56.155Z,72.38
2022-11-07T10:42:56.135Z,72.28
2022-11-07T10:43:56.158Z,72.38
2022-11-07T10:44:56.145Z,72.24
2022-11-07T10:45:56.124Z,71.94
2022-11-07T10:46:56.096Z,72.34
2022-11-07T10:47:56.168Z,72.55
2022-11-07T10:48:56.074Z,72.41
2022-11-07T10:49:56.086Z,71.60
2022-11-07T10:50:56.087Z,71.40
2022-11-07T10:51:56.044Z,71.40
2022-11-07T10:52:56.042Z,71.40
2022-11-07T10:53:56.046Z,71.26
2022-11-07T10:54:56.008Z,71.26
2022-11-07T10:55:56.012Z,70.32
2022-11-07T10:56:56.006Z,70.02
2022-11-07T10:57:55.999Z,69.72
2022-11-07T10:58:55.988Z,69.62
2022-11-07T10:59:56.688Z,69.42
2022-11-07T11:00:56.033Z,69.55
2022-11-07T11:01:56.772Z,69.65
2022-11-07T11:02:55.939Z,69.75
2022-11-07T11:03:56.031Z,69.55
2022-11-07T11:04:55.931Z,70.06
2022-11-07T11:05:56.630Z,69.75
2022-11-07T11:06:55.939Z,69.92
2022-11-07T11:07:56.911Z,69.72
2022-11-07T11:08:55.971Z,69.79
2022-11-07T11:09:55.863Z,68.88
2022-11-07T11:10:55.858Z,68.88
2022-11-07T11:11:55.843Z,68.44
2022-11-07T11:12:55.821Z,68.54
2022-11-07T11:13:55.832Z,68.11
2022-11-07T11:14:55.797Z,67.10
2022-11-07T11:15:55.814Z,67.00
2022-11-07T11:16:55.817Z,67.20
2022-11-07T11:17:55.763Z,67.07
2022-11-07T11:18:55.774Z,66.13
2022-11-07T11:19:55.744Z,66.03
2022-11-07T11:20:55.763Z,65.73
2022-11-07T11:21:55.746Z,64.69
2022-11-07T11:22:55.726Z,64.99
2022-11-07T11:23:55.706Z,64.96
2022-11-07T11:24:55.695Z,64.96
2022-11-07T11:25:55.697Z,64.79
2022-11-07T11:26:55.701Z,65.09
2022-11-07T11:27:55.667Z,65.62
2022-11-07T11:28:55.656Z,65.73
2022-11-07T11:29:55.636Z,65.53
2022-11-07T11:30:55.647Z,65.62
2022-11-07T11:31:55.627Z,66.06
2022-11-07T11:32:55.617Z,66.47
2022-11-07T11:33:55.609Z,66.67
2022-11-07T11:34:55.581Z,66.27
2022-11-07T11:35:55.588Z,66.56
2022-11-07T11:36:55.560Z,66.60
2022-11-07T11:37:55.549Z,67.10
2022-11-07T11:38:55.540Z,67.00
2022-11-07T11:39:55.540Z,66.90
2022-11-07T11:41:03.394Z,66.60
2022-11-07T11:41:56.500Z,66.70
2022-11-07T11:42:55.520Z,65.82
2022-11-07T11:43:55.481Z,66.66
2022-11-07T11:44:55.470Z,67.16
2022-11-07T11:45:55.473Z,67.19
2022-11-07T11:46:55.582Z,67.80
2022-11-07T11:47:55.468Z,67.19
2022-11-07T11:48:55.452Z,67.53
2022-11-07T11:49:55.442Z,67.73
2022-11-07T11:50:55.444Z,67.73
2022-11-07T11:51:55.410Z,68.04
2022-11-07T11:52:55.402Z,67.83
2022-11-07T11:53:55.579Z,67.93
2022-11-07T11:54:55.374Z,67.86
2022-11-07T11:55:55.364Z,67.86
2022-11-07T11:56:55.381Z,68.17
2022-11-07T11:57:55.325Z,68.37
2022-11-07T11:58:55.321Z,68.27
2022-11-07T11:59:55.396Z,68.27
2022-11-07T12:00:55.315Z,67.93
2022-11-07T12:01:55.408Z,67.93
2022-11-07T12:02:55.284Z,67.53
2022-11-07T12:03:55.517Z,67.63
2022-11-07T12:04:55.266Z,67.60
2022-11-07T12:05:55.277Z,67.40
2022-11-07T12:06:55.248Z,66.56
2022-11-07T12:07:55.216Z,66.46
2022-11-07T12:08:55.245Z,66.16
2022-11-07T12:09:55.207Z,66.13
2022-11-07T12:10:55.213Z,65.42
2022-11-07T12:11:55.177Z,65.49
2022-11-07T12:12:55.169Z,65.29
2022-11-07T12:13:55.198Z,65.06
2022-11-07T12:14:57.865Z,64.65
2022-11-07T12:15:55.162Z,64.86
2022-11-07T12:16:55.119Z,64.86
2022-11-07T12:17:55.118Z,64.55
2022-11-07T12:18:55.109Z,64.45
2022-11-07T12:19:55.100Z,64.15
2022-11-07T12:20:55.099Z,64.45
2022-11-07T12:21:55.060Z,64.95
2022-11-07T12:22:55.052Z,64.98
2022-11-07T12:23:55.051Z,64.98
2022-11-07T12:24:55.064Z,64.98
2022-11-07T12:25:55.301Z,65.19
2022-11-07T12:26:57.852Z,65.09
2022-11-07T12:27:55.012Z,64.75
2022-11-07T12:28:55.002Z,65.06
2022-11-07T12:29:55.025Z,64.48
2022-11-07T12:30:54.983Z,64.98
2022-11-07T12:31:54.969Z,65.19
2022-11-07T12:32:54.950Z,65.29
2022-11-07T12:33:54.944Z,65.39
2022-11-07T12:34:54.944Z,65.39
2022-11-07T12:35:54.933Z,65.29
2022-11-07T12:36:54.906Z,65.29
2022-11-07T12:37:54.895Z,65.29
2022-11-07T12:38:54.886Z,64.98
2022-11-07T12:39:54.872Z,64.89
2022-11-07T12:40:54.876Z,65.06
2022-11-07T12:41:54.850Z,64.65
2022-11-07T12:42:59.779Z,64.65
2022-11-07T12:43:55.842Z,64.95
2022-11-07T12:44:54.825Z,64.75
2022-11-07T12:45:54.848Z,64.55
2022-11-07T12:46:54.810Z,64.02
2022-11-07T12:47:54.802Z,64.32
2022-11-07T12:48:54.798Z,63.99
2022-11-07T12:49:54.760Z,63.89
2022-11-07T12:50:54.786Z,63.18
2022-11-07T12:51:54.779Z,63.18
2022-11-07T12:52:54.752Z,62.98